sensor_id;sensor_type;location;lat;lon;timestamp;P1;durP1;ratioP1;P2;durP2;ratioP2
36839;SDS011;24406;51.640;9.566;2023-03-13T00:00:18;14.35;;;6.15;;
36839;SDS011;24406;51.640;9.566;2023-03-13T00:05:21;19.98;;;6.28;;
36839;SDS011;24406;51.640;9.566;2023-03-13T00:10:22;18.67;;;7.10;;
36839;SDS011;24406;51.640;9.566;2023-03-13T00:15:26;25.10;;;6.03;;
36839;SDS011;24406;51.640;9.566;2023-03-13T00:20:28;20.35;;;5.80;;
36839;SDS011;24406;51.640;9.566;2023-03-13T00:25:30;22.77;;;6.75;;
36839;SDS011;24406;51.640;9.566;2023-03-13T00:30:32;20.73;;;6.22;;
36839;SDS011;24406;51.640;9.566;2023-03-13T00:35:34;17.08;;;5.68;;
36839;SDS011;24406;51.640;9.566;2023-03-13T00:40:35;18.60;;;5.55;;
36839;SDS011;24406;51.640;9.566;2023-03-13T00:45:38;17.63;;;4.82;;
36839;SDS011;24406;51.640;9.566;2023-03-13T00:50:40;19.50;;;5.10;;
36839;SDS011;24406;51.640;9.566;2023-03-13T00:55:49;14.82;;;5.32;;
36839;SDS011;24406;51.640;9.566;2023-03-13T01:00:53;20.13;;;5.15;;
36839;SDS011;24406;51.640;9.566;2023-03-13T01:05:55;24.88;;;5.80;;
36839;SDS011;24406;51.640;9.566;2023-03-13T01:10:59;20.65;;;5.35;;
36839;SDS011;24406;51.640;9.566;2023-03-13T01:16:04;16.13;;;4.50;;
36839;SDS011;24406;51.640;9.566;2023-03-13T01:21:06;20.30;;;4.72;;
36839;SDS011;24406;51.640;9.566;2023-03-13T01:26:08;19.80;;;5.03;;
36839;SDS011;24406;51.640;9.566;2023-03-13T01:31:11;19.58;;;5.90;;
36839;SDS011;24406;51.640;9.566;2023-03-13T01:36:13;20.00;;;5.78;;
36839;SDS011;24406;51.640;9.566;2023-03-13T01:41:15;12.73;;;3.83;;
36839;SDS011;24406;51.640;9.566;2023-03-13T01:46:19;18.95;;;4.93;;
36839;SDS011;24406;51.640;9.566;2023-03-13T01:51:31;16.52;;;4.97;;
36839;SDS011;24406;51.640;9.566;2023-03-13T01:56:36;15.60;;;4.72;;
36839;SDS011;24406;51.640;9.566;2023-03-13T02:01:41;20.05;;;5.18;;
36839;SDS011;24406;51.640;9.566;2023-03-13T02:06:44;16.02;;;4.70;;
36839;SDS011;24406;51.640;9.566;2023-03-13T02:11:48;18.40;;;5.10;;
36839;SDS011;24406;51.640;9.566;2023-03-13T02:16:54;19.92;;;4.82;;
36839;SDS011;24406;51.640;9.566;2023-03-13T02:21:58;17.85;;;4.72;;
36839;SDS011;24406;51.640;9.566;2023-03-13T02:27:04;22.23;;;5.22;;
36839;SDS011;24406;51.640;9.566;2023-03-13T02:32:09;14.85;;;5.13;;
36839;SDS011;24406;51.640;9.566;2023-03-13T02:37:11;15.43;;;4.53;;
36839;SDS011;24406;51.640;9.566;2023-03-13T02:42:16;19.20;;;4.47;;
36839;SDS011;24406;51.640;9.566;2023-03-13T02:47:20;20.90;;;5.00;;
36839;SDS011;24406;51.640;9.566;2023-03-13T02:52:25;27.55;;;5.45;;
36839;SDS011;24406;51.640;9.566;2023-03-13T02:57:30;21.40;;;4.88;;
36839;SDS011;24406;51.640;9.566;2023-03-13T03:02:34;15.40;;;4.15;;
36839;SDS011;24406;51.640;9.566;2023-03-13T03:07:35;20.77;;;4.30;;
36839;SDS011;24406;51.640;9.566;2023-03-13T03:12:40;18.15;;;5.68;;
36839;SDS011;24406;51.640;9.566;2023-03-13T03:17:42;18.92;;;5.35;;
36839;SDS011;24406;51.640;9.566;2023-03-13T03:22:44;20.13;;;3.80;;
36839;SDS011;24406;51.640;9.566;2023-03-13T03:27:47;19.98;;;5.22;;
36839;SDS011;24406;51.640;9.566;2023-03-13T03:32:49;17.33;;;4.63;;
36839;SDS011;24406;51.640;9.566;2023-03-13T03:37:51;16.48;;;5.10;;
36839;SDS011;24406;51.640;9.566;2023-03-13T03:42:54;21.08;;;5.70;;
36839;SDS011;24406;51.640;9.566;2023-03-13T03:47:55;21.80;;;5.72;;
36839;SDS011;24406;51.640;9.566;2023-03-13T03:52:59;18.77;;;4.70;;
36839;SDS011;24406;51.640;9.566;2023-03-13T03:58:02;20.67;;;5.70;;
36839;SDS011;24406;51.640;9.566;2023-03-13T04:03:30;19.42;;;5.85;;
36839;SDS011;24406;51.640;9.566;2023-03-13T04:08:31;14.52;;;4.63;;
36839;SDS011;24406;51.640;9.566;2023-03-13T04:13:34;20.80;;;5.20;;
36839;SDS011;24406;51.640;9.566;2023-03-13T04:18:37;13.57;;;5.60;;
36839;SDS011;24406;51.640;9.566;2023-03-13T04:23:38;18.20;;;6.00;;
36839;SDS011;24406;51.640;9.566;2023-03-13T04:28:41;15.10;;;5.03;;
36839;SDS011;24406;51.640;9.566;2023-03-13T04:33:45;19.63;;;5.10;;
36839;SDS011;24406;51.640;9.566;2023-03-13T04:38:57;26.42;;;5.68;;
36839;SDS011;24406;51.640;9.566;2023-03-13T04:44:10;16.77;;;5.50;;
36839;SDS011;24406;51.640;9.566;2023-03-13T04:49:29;15.88;;;4.32;;
36839;SDS011;24406;51.640;9.566;2023-03-13T04:54:57;15.20;;;4.28;;
36839;SDS011;24406;51.640;9.566;2023-03-13T05:00:18;13.65;;;4.72;;
36839;SDS011;24406;51.640;9.566;2023-03-13T05:05:36;18.70;;;5.35;;
36839;SDS011;24406;51.640;9.566;2023-03-13T05:10:53;13.48;;;4.50;;
36839;SDS011;24406;51.640;9.566;2023-03-13T05:15:59;12.32;;;4.85;;
36839;SDS011;24406;51.640;9.566;2023-03-13T05:21:09;14.57;;;5.15;;
36839;SDS011;24406;51.640;9.566;2023-03-13T05:26:29;12.98;;;4.57;;
36839;SDS011;24406;51.640;9.566;2023-03-13T05:31:51;10.27;;;4.90;;
36839;SDS011;24406;51.640;9.566;2023-03-13T05:37:11;11.88;;;4.13;;
36839;SDS011;24406;51.640;9.566;2023-03-13T05:42:34;13.35;;;4.68;;
36839;SDS011;24406;51.640;9.566;2023-03-13T05:47:49;15.43;;;4.95;;
36839;SDS011;24406;51.640;9.566;2023-03-13T05:53:13;12.13;;;4.07;;
36839;SDS011;24406;51.640;9.566;2023-03-13T05:58:35;10.98;;;4.40;;
36839;SDS011;24406;51.640;9.566;2023-03-13T06:03:48;11.93;;;3.95;;
36839;SDS011;24406;51.640;9.566;2023-03-13T06:08:51;7.38;;;2.90;;
36839;SDS011;24406;51.640;9.566;2023-03-13T06:13:54;6.05;;;3.30;;
36839;SDS011;24406;51.640;9.566;2023-03-13T06:19:07;11.27;;;4.05;;
36839;SDS011;24406;51.640;9.566;2023-03-13T06:24:08;7.07;;;2.88;;
36839;SDS011;24406;51.640;9.566;2023-03-13T06:29:10;8.00;;;3.08;;
36839;SDS011;24406;51.640;9.566;2023-03-13T06:34:13;5.63;;;2.83;;
36839;SDS011;24406;51.640;9.566;2023-03-13T06:39:14;7.57;;;2.70;;
36839;SDS011;24406;51.640;9.566;2023-03-13T06:44:16;6.60;;;2.78;;
36839;SDS011;24406;51.640;9.566;2023-03-13T06:49:18;6.03;;;2.92;;
36839;SDS011;24406;51.640;9.566;2023-03-13T06:54:20;3.22;;;2.53;;
36839;SDS011;24406;51.640;9.566;2023-03-13T06:59:21;7.72;;;3.00;;
36839;SDS011;24406;51.640;9.566;2023-03-13T07:04:24;6.55;;;2.45;;
36839;SDS011;24406;51.640;9.566;2023-03-13T07:09:26;6.60;;;2.72;;
36839;SDS011;24406;51.640;9.566;2023-03-13T07:14:27;4.13;;;2.65;;
36839;SDS011;24406;51.640;9.566;2023-03-13T07:19:30;5.63;;;2.65;;
36839;SDS011;24406;51.640;9.566;2023-03-13T07:24:32;4.93;;;2.90;;
36839;SDS011;24406;51.640;9.566;2023-03-13T07:29:34;4.88;;;2.20;;
36839;SDS011;24406;51.640;9.566;2023-03-13T07:34:37;4.68;;;2.10;;
36839;SDS011;24406;51.640;9.566;2023-03-13T07:39:38;3.92;;;1.92;;
36839;SDS011;24406;51.640;9.566;2023-03-13T07:44:40;2.53;;;1.77;;
36839;SDS011;24406;51.640;9.566;2023-03-13T07:49:42;5.28;;;2.10;;
36839;SDS011;24406;51.640;9.566;2023-03-13T07:54:45;3.33;;;1.75;;
36839;SDS011;24406;51.640;9.566;2023-03-13T07:59:47;3.15;;;1.70;;
36839;SDS011;24406;51.640;9.566;2023-03-13T08:04:51;1.95;;;1.70;;
36839;SDS011;24406;51.640;9.566;2023-03-13T08:09:53;6.47;;;2.25;;
36839;SDS011;24406;51.640;9.566;2023-03-13T08:14:55;5.00;;;2.63;;
36839;SDS011;24406;51.640;9.566;2023-03-13T08:19:58;3.08;;;2.63;;
36839;SDS011;24406;51.640;9.566;2023-03-13T08:24:59;5.15;;;2.92;;
36839;SDS011;24406;51.640;9.566;2023-03-13T08:30:00;2.60;;;2.35;;
36839;SDS011;24406;51.640;9.566;2023-03-13T08:35:04;3.53;;;1.98;;
36839;SDS011;24406;51.640;9.566;2023-03-13T08:40:06;2.25;;;1.95;;
36839;SDS011;24406;51.640;9.566;2023-03-13T08:45:10;3.08;;;2.80;;
36839;SDS011;24406;51.640;9.566;2023-03-13T08:50:13;2.45;;;1.30;;
36839;SDS011;24406;51.640;9.566;2023-03-13T08:55:14;1.52;;;1.25;;
36839;SDS011;24406;51.640;9.566;2023-03-13T09:00:16;2.55;;;1.50;;
36839;SDS011;24406;51.640;9.566;2023-03-13T09:05:20;2.95;;;2.05;;
36839;SDS011;24406;51.640;9.566;2023-03-13T09:10:21;3.03;;;2.75;;
36839;SDS011;24406;51.640;9.566;2023-03-13T09:15:23;2.40;;;1.88;;
36839;SDS011;24406;51.640;9.566;2023-03-13T09:20:26;1.55;;;1.08;;
36839;SDS011;24406;51.640;9.566;2023-03-13T09:25:27;2.05;;;1.50;;
36839;SDS011;24406;51.640;9.566;2023-03-13T09:30:29;2.10;;;1.10;;
36839;SDS011;24406;51.640;9.566;2023-03-13T09:35:32;1.20;;;1.10;;
36839;SDS011;24406;51.640;9.566;2023-03-13T09:40:36;4.05;;;1.73;;
36839;SDS011;24406;51.640;9.566;2023-03-13T09:45:39;1.92;;;1.55;;
36839;SDS011;24406;51.640;9.566;2023-03-13T09:50:44;5.47;;;2.58;;
36839;SDS011;24406;51.640;9.566;2023-03-13T09:55:48;2.78;;;1.50;;
36839;SDS011;24406;51.640;9.566;2023-03-13T10:00:50;2.45;;;1.40;;
36839;SDS011;24406;51.640;9.566;2023-03-13T10:05:56;2.30;;;1.75;;
36839;SDS011;24406;51.640;9.566;2023-03-13T10:11:00;3.88;;;1.83;;
36839;SDS011;24406;51.640;9.566;2023-03-13T10:16:04;1.83;;;1.40;;
36839;SDS011;24406;51.640;9.566;2023-03-13T10:21:13;1.42;;;1.23;;
36839;SDS011;24406;51.640;9.566;2023-03-13T10:26:19;1.63;;;1.45;;
36839;SDS011;24406;51.640;9.566;2023-03-13T10:31:23;4.00;;;1.80;;
36839;SDS011;24406;51.640;9.566;2023-03-13T10:36:29;2.03;;;1.48;;
36839;SDS011;24406;51.640;9.566;2023-03-13T10:41:40;2.63;;;1.92;;
36839;SDS011;24406;51.640;9.566;2023-03-13T10:46:42;3.13;;;1.77;;
36839;SDS011;24406;51.640;9.566;2023-03-13T10:51:47;4.40;;;2.08;;
36839;SDS011;24406;51.640;9.566;2023-03-13T10:56:49;2.97;;;1.80;;
36839;SDS011;24406;51.640;9.566;2023-03-13T11:01:52;3.25;;;2.05;;
36839;SDS011;24406;51.640;9.566;2023-03-13T11:07:00;3.28;;;1.95;;
36839;SDS011;24406;51.640;9.566;2023-03-13T11:12:03;3.43;;;2.63;;
36839;SDS011;24406;51.640;9.566;2023-03-13T11:17:10;4.35;;;2.25;;
36839;SDS011;24406;51.640;9.566;2023-03-13T11:22:22;5.78;;;2.60;;
36839;SDS011;24406;51.640;9.566;2023-03-13T11:27:30;2.95;;;2.55;;
36839;SDS011;24406;51.640;9.566;2023-03-13T11:32:37;3.88;;;2.53;;
36839;SDS011;24406;51.640;9.566;2023-03-13T11:37:43;2.92;;;2.25;;
36839;SDS011;24406;51.640;9.566;2023-03-13T11:42:58;3.88;;;1.88;;
36839;SDS011;24406;51.640;9.566;2023-03-13T11:48:13;3.92;;;2.25;;
36839;SDS011;24406;51.640;9.566;2023-03-13T11:53:26;3.47;;;2.45;;
36839;SDS011;24406;51.640;9.566;2023-03-13T11:58:37;2.08;;;1.92;;
36839;SDS011;24406;51.640;9.566;2023-03-13T12:03:52;3.47;;;2.47;;
36839;SDS011;24406;51.640;9.566;2023-03-13T12:08:59;4.65;;;2.80;;
36839;SDS011;24406;51.640;9.566;2023-03-13T12:14:08;1.40;;;1.30;;
36839;SDS011;24406;51.640;9.566;2023-03-13T12:19:14;2.47;;;1.60;;
36839;SDS011;24406;51.640;9.566;2023-03-13T12:24:20;3.60;;;2.03;;
36839;SDS011;24406;51.640;9.566;2023-03-13T12:29:29;5.68;;;2.85;;
36839;SDS011;24406;51.640;9.566;2023-03-13T12:34:38;2.33;;;2.10;;
36839;SDS011;24406;51.640;9.566;2023-03-13T12:39:48;3.80;;;2.10;;
36839;SDS011;24406;51.640;9.566;2023-03-13T12:44:52;3.05;;;2.42;;
36839;SDS011;24406;51.640;9.566;2023-03-13T12:55:35;1.67;;;1.52;;
36839;SDS011;24406;51.640;9.566;2023-03-13T13:00:55;1.52;;;1.42;;
36839;SDS011;24406;51.640;9.566;2023-03-13T13:06:02;1.58;;;1.45;;
36839;SDS011;24406;51.640;9.566;2023-03-13T13:16:53;2.92;;;1.40;;
36839;SDS011;24406;51.640;9.566;2023-03-13T13:27:44;1.38;;;1.02;;
36839;SDS011;24406;51.640;9.566;2023-03-13T13:32:48;3.13;;;1.70;;
36839;SDS011;24406;51.640;9.566;2023-03-13T13:37:50;1.70;;;1.60;;
36839;SDS011;24406;51.640;9.566;2023-03-13T13:42:52;2.55;;;1.40;;
36839;SDS011;24406;51.640;9.566;2023-03-13T13:53:32;2.13;;;1.63;;
36839;SDS011;24406;51.640;9.566;2023-03-13T13:58:38;1.10;;;1.00;;
36839;SDS011;24406;51.640;9.566;2023-03-13T14:03:44;2.10;;;1.90;;
36839;SDS011;24406;51.640;9.566;2023-03-13T14:08:47;2.22;;;2.03;;
36839;SDS011;24406;51.640;9.566;2023-03-13T14:14:10;9.68;;;6.38;;
36839;SDS011;24406;51.640;9.566;2023-03-13T14:19:22;2.55;;;2.35;;
36839;SDS011;24406;51.640;9.566;2023-03-13T14:24:25;2.80;;;1.90;;
36839;SDS011;24406;51.640;9.566;2023-03-13T14:29:26;1.70;;;1.60;;
36839;SDS011;24406;51.640;9.566;2023-03-13T14:34:29;4.50;;;2.58;;
36839;SDS011;24406;51.640;9.566;2023-03-13T14:39:41;2.22;;;1.42;;
36839;SDS011;24406;51.640;9.566;2023-03-13T14:44:44;2.03;;;1.80;;
36839;SDS011;24406;51.640;9.566;2023-03-13T14:49:55;2.22;;;1.88;;
36839;SDS011;24406;51.640;9.566;2023-03-13T14:54:59;5.47;;;3.33;;
36839;SDS011;24406;51.640;9.566;2023-03-13T15:00:26;3.75;;;1.85;;
36839;SDS011;24406;51.640;9.566;2023-03-13T15:05:32;2.92;;;1.92;;
36839;SDS011;24406;51.640;9.566;2023-03-13T15:10:34;2.22;;;1.63;;
36839;SDS011;24406;51.640;9.566;2023-03-13T15:15:36;4.47;;;3.47;;
36839;SDS011;24406;51.640;9.566;2023-03-13T15:20:39;3.78;;;2.95;;
36839;SDS011;24406;51.640;9.566;2023-03-13T15:25:40;2.50;;;2.30;;
36839;SDS011;24406;51.640;9.566;2023-03-13T15:30:42;3.65;;;3.35;;
36839;SDS011;24406;51.640;9.566;2023-03-13T15:35:45;4.13;;;3.55;;
36839;SDS011;24406;51.640;9.566;2023-03-13T15:40:47;3.38;;;2.95;;
36839;SDS011;24406;51.640;9.566;2023-03-13T15:45:49;3.35;;;1.98;;
36839;SDS011;24406;51.640;9.566;2023-03-13T15:50:53;2.03;;;1.60;;
36839;SDS011;24406;51.640;9.566;2023-03-13T15:55:58;2.65;;;1.52;;
36839;SDS011;24406;51.640;9.566;2023-03-13T16:01:00;4.68;;;1.70;;
36839;SDS011;24406;51.640;9.566;2023-03-13T16:06:08;3.58;;;2.30;;
36839;SDS011;24406;51.640;9.566;2023-03-13T16:11:14;3.65;;;1.70;;
36839;SDS011;24406;51.640;9.566;2023-03-13T16:16:17;1.85;;;1.75;;
36839;SDS011;24406;51.640;9.566;2023-03-13T16:21:22;1.50;;;1.40;;
36839;SDS011;24406;51.640;9.566;2023-03-13T16:26:26;1.52;;;1.42;;
36839;SDS011;24406;51.640;9.566;2023-03-13T16:31:29;1.60;;;1.50;;
36839;SDS011;24406;51.640;9.566;2023-03-13T16:36:34;2.97;;;1.90;;
36839;SDS011;24406;51.640;9.566;2023-03-13T16:41:36;3.20;;;2.20;;
36839;SDS011;24406;51.640;9.566;2023-03-13T16:46:39;3.80;;;2.28;;
36839;SDS011;24406;51.640;9.566;2023-03-13T16:51:44;2.65;;;1.90;;
36839;SDS011;24406;51.640;9.566;2023-03-13T16:56:46;2.78;;;2.58;;
36839;SDS011;24406;51.640;9.566;2023-03-13T17:01:48;4.78;;;3.05;;
36839;SDS011;24406;51.640;9.566;2023-03-13T17:06:50;3.95;;;3.33;;
36839;SDS011;24406;51.640;9.566;2023-03-13T17:11:52;2.30;;;1.90;;
36839;SDS011;24406;51.640;9.566;2023-03-13T17:16:54;2.17;;;1.90;;
36839;SDS011;24406;51.640;9.566;2023-03-13T17:21:56;3.13;;;2.00;;
36839;SDS011;24406;51.640;9.566;2023-03-13T17:26:58;2.55;;;2.33;;
36839;SDS011;24406;51.640;9.566;2023-03-13T17:31:59;2.88;;;2.58;;
36839;SDS011;24406;51.640;9.566;2023-03-13T17:37:04;2.72;;;2.53;;
36839;SDS011;24406;51.640;9.566;2023-03-13T17:42:09;2.50;;;1.92;;
36839;SDS011;24406;51.640;9.566;2023-03-13T17:47:13;2.80;;;2.05;;
36839;SDS011;24406;51.640;9.566;2023-03-13T17:52:17;2.13;;;1.92;;
36839;SDS011;24406;51.640;9.566;2023-03-13T17:57:19;3.38;;;2.35;;
36839;SDS011;24406;51.640;9.566;2023-03-13T18:02:22;2.30;;;2.10;;
36839;SDS011;24406;51.640;9.566;2023-03-13T18:07:25;2.28;;;2.08;;
36839;SDS011;24406;51.640;9.566;2023-03-13T18:12:28;5.03;;;2.30;;
36839;SDS011;24406;51.640;9.566;2023-03-13T18:17:30;2.72;;;2.53;;
36839;SDS011;24406;51.640;9.566;2023-03-13T18:22:32;2.50;;;2.20;;
36839;SDS011;24406;51.640;9.566;2023-03-13T18:27:34;2.85;;;2.65;;
36839;SDS011;24406;51.640;9.566;2023-03-13T18:32:35;5.72;;;3.80;;
36839;SDS011;24406;51.640;9.566;2023-03-13T18:37:39;2.70;;;2.05;;
36839;SDS011;24406;51.640;9.566;2023-03-13T18:42:41;2.72;;;1.95;;
36839;SDS011;24406;51.640;9.566;2023-03-13T18:47:43;2.60;;;2.30;;
36839;SDS011;24406;51.640;9.566;2023-03-13T18:52:46;2.55;;;1.90;;
36839;SDS011;24406;51.640;9.566;2023-03-13T18:57:47;1.80;;;1.70;;
36839;SDS011;24406;51.640;9.566;2023-03-13T19:02:49;3.67;;;2.72;;
36839;SDS011;24406;51.640;9.566;2023-03-13T19:07:51;5.10;;;3.55;;
36839;SDS011;24406;51.640;9.566;2023-03-13T19:12:53;6.95;;;6.22;;
36839;SDS011;24406;51.640;9.566;2023-03-13T19:17:57;7.10;;;3.78;;
36839;SDS011;24406;51.640;9.566;2023-03-13T19:23:00;5.78;;;4.68;;
36839;SDS011;24406;51.640;9.566;2023-03-13T19:28:04;3.30;;;2.85;;
36839;SDS011;24406;51.640;9.566;2023-03-13T19:33:05;2.47;;;2.28;;
36839;SDS011;24406;51.640;9.566;2023-03-13T19:38:09;5.00;;;3.50;;
36839;SDS011;24406;51.640;9.566;2023-03-13T19:43:11;5.60;;;4.80;;
36839;SDS011;24406;51.640;9.566;2023-03-13T19:48:13;3.88;;;3.45;;
36839;SDS011;24406;51.640;9.566;2023-03-13T19:53:16;6.05;;;5.55;;
36839;SDS011;24406;51.640;9.566;2023-03-13T19:58:17;7.47;;;6.80;;
36839;SDS011;24406;51.640;9.566;2023-03-13T20:03:19;8.45;;;7.60;;
36839;SDS011;24406;51.640;9.566;2023-03-13T20:08:21;12.85;;;10.32;;
36839;SDS011;24406;51.640;9.566;2023-03-13T20:13:23;8.27;;;7.47;;
36839;SDS011;24406;51.640;9.566;2023-03-13T20:18:24;8.88;;;7.95;;
36839;SDS011;24406;51.640;9.566;2023-03-13T20:23:27;5.03;;;4.53;;
36839;SDS011;24406;51.640;9.566;2023-03-13T20:28:29;6.03;;;3.72;;
36839;SDS011;24406;51.640;9.566;2023-03-13T20:33:30;7.47;;;6.80;;
36839;SDS011;24406;51.640;9.566;2023-03-13T20:38:33;8.25;;;6.60;;
36839;SDS011;24406;51.640;9.566;2023-03-13T20:43:35;8.20;;;5.93;;
36839;SDS011;24406;51.640;9.566;2023-03-13T20:48:37;29.35;;;12.55;;
36839;SDS011;24406;51.640;9.566;2023-03-13T20:53:41;28.27;;;11.82;;
36839;SDS011;24406;51.640;9.566;2023-03-13T20:58:43;51.97;;;20.77;;
36839;SDS011;24406;51.640;9.566;2023-03-13T21:03:44;18.52;;;8.82;;
36839;SDS011;24406;51.640;9.566;2023-03-13T21:08:47;38.63;;;15.55;;
36839;SDS011;24406;51.640;9.566;2023-03-13T21:13:49;36.65;;;14.95;;
36839;SDS011;24406;51.640;9.566;2023-03-13T21:18:51;25.08;;;11.18;;
36839;SDS011;24406;51.640;9.566;2023-03-13T21:23:54;25.70;;;12.20;;
36839;SDS011;24406;51.640;9.566;2023-03-13T21:28:55;12.45;;;8.98;;
36839;SDS011;24406;51.640;9.566;2023-03-13T21:33:57;9.68;;;7.63;;
36839;SDS011;24406;51.640;9.566;2023-03-13T21:39:00;6.43;;;5.07;;
36839;SDS011;24406;51.640;9.566;2023-03-13T21:44:01;5.60;;;3.33;;
36839;SDS011;24406;51.640;9.566;2023-03-13T21:49:03;9.05;;;6.45;;
36839;SDS011;24406;51.640;9.566;2023-03-13T21:54:06;37.90;;;17.73;;
36839;SDS011;24406;51.640;9.566;2023-03-13T21:59:07;21.83;;;9.88;;
36839;SDS011;24406;51.640;9.566;2023-03-13T22:04:09;15.45;;;8.30;;
36839;SDS011;24406;51.640;9.566;2023-03-13T22:09:12;7.57;;;5.00;;
36839;SDS011;24406;51.640;9.566;2023-03-13T22:14:13;11.02;;;7.43;;
36839;SDS011;24406;51.640;9.566;2023-03-13T22:19:15;6.85;;;5.20;;
36839;SDS011;24406;51.640;9.566;2023-03-13T22:24:18;5.85;;;5.07;;
36839;SDS011;24406;51.640;9.566;2023-03-13T22:29:20;8.43;;;7.57;;
36839;SDS011;24406;51.640;9.566;2023-03-13T22:34:37;8.20;;;6.00;;
36839;SDS011;24406;51.640;9.566;2023-03-13T22:39:43;11.90;;;8.10;;
36839;SDS011;24406;51.640;9.566;2023-03-13T22:44:45;16.27;;;9.48;;
36839;SDS011;24406;51.640;9.566;2023-03-13T22:49:48;11.43;;;7.75;;
36839;SDS011;24406;51.640;9.566;2023-03-13T22:54:49;39.90;;;17.75;;
36839;SDS011;24406;51.640;9.566;2023-03-13T22:59:51;24.40;;;13.45;;
36839;SDS011;24406;51.640;9.566;2023-03-13T23:04:54;10.50;;;7.47;;
36839;SDS011;24406;51.640;9.566;2023-03-13T23:09:57;26.10;;;14.40;;
36839;SDS011;24406;51.640;9.566;2023-03-13T23:14:59;12.40;;;8.13;;
36839;SDS011;24406;51.640;9.566;2023-03-13T23:20:02;10.65;;;7.25;;
36839;SDS011;24406;51.640;9.566;2023-03-13T23:30:12;3.53;;;2.60;;
36839;SDS011;24406;51.640;9.566;2023-03-13T23:35:16;4.50;;;2.50;;
36839;SDS011;24406;51.640;9.566;2023-03-13T23:40:18;5.40;;;4.38;;
36839;SDS011;24406;51.640;9.566;2023-03-13T23:45:20;2.33;;;1.92;;
36839;SDS011;24406;51.640;9.566;2023-03-13T23:50:23;3.53;;;1.77;;
36839;SDS011;24406;51.640;9.566;2023-03-13T23:55:24;5.88;;;2.10;;
